Paynesville, MN

11:50 PM CDT on May 28, 2015 (GMT -0500)
Paynesville | | Change Station
CLOSE
Current Station
Airport
Location: Paynesville,
Elevation: 1181 ft
Nearby Weather Stations

Elev 1181 ft 45.37 °N, 94.74 °W | Updated 37 minutes ago

Mostly Cloudy
Mostly Cloudy
68 °F
Feels Like 68 °F
N
10
Wind Variable Wind from SE
Gusts 18 mph

Today
High -- | Low -- °F
--% Chance of Precip.
Yesterday
High -- | Low -- °F
Precip. -- in
5:36 AM 8:56 PM
Waxing Gibbous, 81% visible
Pressure 29.91 in
Visibility 10.0 miles
Clouds Mostly Cloudy 12000 ft
Dew Point 55 °F
Humidity 65%
Rainfall 0.00 in
Snow Depth Not available.
UV 0 out of 12
Pollen 8.40 out of 12
Air Quality Not available.
Flu Activity Sporadic
METAR KPEX 290413Z AUTO 14009G16KT 10SM BKN120 20/13 A2991 RMK AO2 LTG DSNT W AND NW T01980130

More Conditions Fewer Conditions

Pressure 29.91 in
Visibility 10.0 miles
Clouds Mostly Cloudy 12000 ft
Dew Point 55 °F
Humidity 65%
Rainfall 0.00 in
Snow Depth Not available.
UV 0 out of 12
Pollen 8.40 out of 12
Air Quality Not available.
Flu Activity Sporadic
METAR KPEX 290413Z AUTO 14009G16KT 10SM BKN120 20/13 A2991 RMK AO2 LTG DSNT W AND NW T01980130

More Conditions Fewer Conditions

10-Day Weather Forecast

Almanac

Astronomy

May. 28, 2015 Rise Set
Actual Time
Civil Twilight
Nautical Twilight
Astronomical Twilight
Moon
Length of Visible Light
Length of Day
Tomorrow will be .
, % of the Moon is Illuminated

Today's Extremes

State Highs State Lows

Community

WunderPhotos

Upload Photos

1,825,209 photos uploaded!

WunderBlogs® & News

Nearby

Air Quality

  Air Quality AQ Index Pollutant
Not available.

Snow Depth

Station Depth Elevation

Earthquake Activity

City Distance Mag. Time & Date
Minimum magnitude displayed is 2.5.

Coastal Water Temperatures

Place Temperature

Stations

Nearby Weather Stations

Station Location Temp. Windchill Dew Point Humidity Wind Precip. Elev Updated Type